sensor_id;sensor_type;location;lat;lon;timestamp;P1;durP1;ratioP1;P2;durP2;ratioP2
72065;SDS011;59939;52.516;13.420;2022-12-08T00:00:17;19.40;;;7.70;;
72065;SDS011;59939;52.516;13.420;2022-12-08T00:03:29;18.47;;;5.87;;
72065;SDS011;59939;52.516;13.420;2022-12-08T00:06:36;22.47;;;8.53;;
72065;SDS011;59939;52.516;13.420;2022-12-08T00:09:59;20.43;;;7.50;;
72065;SDS011;59939;52.516;13.420;2022-12-08T00:13:02;14.70;;;6.73;;
72065;SDS011;59939;52.516;13.420;2022-12-08T00:16:06;19.93;;;5.43;;
72065;SDS011;59939;52.516;13.420;2022-12-08T00:19:12;18.90;;;6.90;;
72065;SDS011;59939;52.516;13.420;2022-12-08T00:22:16;21.80;;;7.87;;
72065;SDS011;59939;52.516;13.420;2022-12-08T00:25:20;12.87;;;5.40;;
72065;SDS011;59939;52.516;13.420;2022-12-08T00:28:26;15.70;;;6.20;;
72065;SDS011;59939;52.516;13.420;2022-12-08T00:31:30;20.17;;;7.47;;
72065;SDS011;59939;52.516;13.420;2022-12-08T00:34:36;23.27;;;7.30;;
72065;SDS011;59939;52.516;13.420;2022-12-08T00:37:39;20.20;;;8.23;;
72065;SDS011;59939;52.516;13.420;2022-12-08T00:40:45;17.50;;;7.60;;
72065;SDS011;59939;52.516;13.420;2022-12-08T00:43:57;18.93;;;5.80;;
72065;SDS011;59939;52.516;13.420;2022-12-08T00:47:00;19.07;;;7.40;;
72065;SDS011;59939;52.516;13.420;2022-12-08T00:50:04;21.27;;;7.63;;
72065;SDS011;59939;52.516;13.420;2022-12-08T00:53:08;20.80;;;8.40;;
72065;SDS011;59939;52.516;13.420;2022-12-08T00:56:11;15.73;;;7.53;;
72065;SDS011;59939;52.516;13.420;2022-12-08T00:59:20;17.70;;;6.40;;
72065;SDS011;59939;52.516;13.420;2022-12-08T01:02:23;14.67;;;5.70;;
72065;SDS011;59939;52.516;13.420;2022-12-08T01:05:28;18.67;;;7.10;;
72065;SDS011;59939;52.516;13.420;2022-12-08T01:08:32;21.63;;;6.80;;
72065;SDS011;59939;52.516;13.420;2022-12-08T01:11:37;20.70;;;7.90;;
72065;SDS011;59939;52.516;13.420;2022-12-08T01:14:48;23.00;;;8.67;;
72065;SDS011;59939;52.516;13.420;2022-12-08T01:17:52;20.47;;;8.67;;
72065;SDS011;59939;52.516;13.420;2022-12-08T01:21:03;19.73;;;6.97;;
72065;SDS011;59939;52.516;13.420;2022-12-08T01:24:11;21.13;;;7.67;;
72065;SDS011;59939;52.516;13.420;2022-12-08T01:27:17;24.83;;;10.20;;
72065;SDS011;59939;52.516;13.420;2022-12-08T01:30:29;22.20;;;9.23;;
72065;SDS011;59939;52.516;13.420;2022-12-08T01:33:33;19.43;;;6.07;;
72065;SDS011;59939;52.516;13.420;2022-12-08T01:36:39;21.83;;;8.63;;
72065;SDS011;59939;52.516;13.420;2022-12-08T01:39:43;23.27;;;9.43;;
72065;SDS011;59939;52.516;13.420;2022-12-08T01:42:48;23.30;;;8.27;;
72065;SDS011;59939;52.516;13.420;2022-12-08T01:45:54;25.87;;;10.77;;
72065;SDS011;59939;52.516;13.420;2022-12-08T01:49:01;25.10;;;9.43;;
72065;SDS011;59939;52.516;13.420;2022-12-08T01:55:16;20.23;;;8.50;;
72065;SDS011;59939;52.516;13.420;2022-12-08T01:58:28;20.33;;;9.20;;
72065;SDS011;59939;52.516;13.420;2022-12-08T02:01:36;21.17;;;7.37;;
72065;SDS011;59939;52.516;13.420;2022-12-08T02:04:43;17.20;;;6.93;;
72065;SDS011;59939;52.516;13.420;2022-12-08T02:07:54;24.03;;;7.53;;
72065;SDS011;59939;52.516;13.420;2022-12-08T02:11:08;30.47;;;10.33;;
72065;SDS011;59939;52.516;13.420;2022-12-08T02:14:15;29.17;;;11.90;;
72065;SDS011;59939;52.516;13.420;2022-12-08T02:20:55;16.40;;;7.40;;
72065;SDS011;59939;52.516;13.420;2022-12-08T02:24:05;22.00;;;7.80;;
72065;SDS011;59939;52.516;13.420;2022-12-08T02:30:19;29.27;;;8.13;;
72065;SDS011;59939;52.516;13.420;2022-12-08T02:33:26;19.70;;;8.00;;
72065;SDS011;59939;52.516;13.420;2022-12-08T02:43:06;25.03;;;8.60;;
72065;SDS011;59939;52.516;13.420;2022-12-08T02:46:13;20.37;;;8.50;;
72065;SDS011;59939;52.516;13.420;2022-12-08T02:49:26;22.30;;;7.67;;
72065;SDS011;59939;52.516;13.420;2022-12-08T02:52:41;20.83;;;7.30;;
72065;SDS011;59939;52.516;13.420;2022-12-08T03:02:27;19.63;;;7.57;;
72065;SDS011;59939;52.516;13.420;2022-12-08T03:09:02;22.67;;;7.97;;
72065;SDS011;59939;52.516;13.420;2022-12-08T03:12:19;19.93;;;7.10;;
72065;SDS011;59939;52.516;13.420;2022-12-08T03:15:27;22.30;;;7.97;;
72065;SDS011;59939;52.516;13.420;2022-12-08T03:18:32;18.60;;;6.83;;
72065;SDS011;59939;52.516;13.420;2022-12-08T03:25:13;18.17;;;6.90;;
72065;SDS011;59939;52.516;13.420;2022-12-08T03:28:18;23.70;;;7.73;;
72065;SDS011;59939;52.516;13.420;2022-12-08T03:34:53;21.37;;;8.13;;
72065;SDS011;59939;52.516;13.420;2022-12-08T03:38:02;20.53;;;7.43;;
72065;SDS011;59939;52.516;13.420;2022-12-08T03:41:09;25.87;;;10.23;;
72065;SDS011;59939;52.516;13.420;2022-12-08T03:44:35;16.00;;;6.07;;
72065;SDS011;59939;52.516;13.420;2022-12-08T03:47:53;31.33;;;9.90;;
72065;SDS011;59939;52.516;13.420;2022-12-08T03:51:03;26.83;;;10.60;;
72065;SDS011;59939;52.516;13.420;2022-12-08T03:54:10;21.77;;;9.33;;
72065;SDS011;59939;52.516;13.420;2022-12-08T03:57:13;28.27;;;10.40;;
72065;SDS011;59939;52.516;13.420;2022-12-08T04:00:18;29.23;;;11.70;;
72065;SDS011;59939;52.516;13.420;2022-12-08T04:03:22;33.57;;;13.17;;
72065;SDS011;59939;52.516;13.420;2022-12-08T04:06:25;32.63;;;12.93;;
72065;SDS011;59939;52.516;13.420;2022-12-08T04:09:29;22.50;;;10.40;;
72065;SDS011;59939;52.516;13.420;2022-12-08T04:12:33;30.63;;;12.87;;
72065;SDS011;59939;52.516;13.420;2022-12-08T04:15:36;28.77;;;12.13;;
72065;SDS011;59939;52.516;13.420;2022-12-08T04:18:40;27.13;;;11.53;;
72065;SDS011;59939;52.516;13.420;2022-12-08T04:21:46;42.27;;;15.53;;
72065;SDS011;59939;52.516;13.420;2022-12-08T04:24:51;37.10;;;16.23;;
72065;SDS011;59939;52.516;13.420;2022-12-08T04:27:55;37.97;;;17.37;;
72065;SDS011;59939;52.516;13.420;2022-12-08T04:30:59;44.23;;;20.87;;
72065;SDS011;59939;52.516;13.420;2022-12-08T04:34:03;41.50;;;21.00;;
72065;SDS011;59939;52.516;13.420;2022-12-08T04:37:06;39.60;;;21.33;;
72065;SDS011;59939;52.516;13.420;2022-12-08T04:40:13;41.93;;;21.73;;
72065;SDS011;59939;52.516;13.420;2022-12-08T04:43:16;39.67;;;19.37;;
72065;SDS011;59939;52.516;13.420;2022-12-08T04:46:20;45.23;;;21.53;;
72065;SDS011;59939;52.516;13.420;2022-12-08T04:49:26;41.87;;;20.77;;
72065;SDS011;59939;52.516;13.420;2022-12-08T04:52:33;52.30;;;25.33;;
72065;SDS011;59939;52.516;13.420;2022-12-08T04:55:46;32.63;;;19.43;;
72065;SDS011;59939;52.516;13.420;2022-12-08T04:58:52;39.13;;;23.83;;
72065;SDS011;59939;52.516;13.420;2022-12-08T05:01:55;34.80;;;20.73;;
72065;SDS011;59939;52.516;13.420;2022-12-08T05:05:00;33.27;;;18.83;;
72065;SDS011;59939;52.516;13.420;2022-12-08T05:08:04;31.27;;;19.63;;
72065;SDS011;59939;52.516;13.420;2022-12-08T05:11:10;45.53;;;21.30;;
72065;SDS011;59939;52.516;13.420;2022-12-08T05:14:15;28.33;;;15.77;;
72065;SDS011;59939;52.516;13.420;2022-12-08T05:17:20;33.90;;;16.13;;
72065;SDS011;59939;52.516;13.420;2022-12-08T05:20:23;26.67;;;12.83;;
72065;SDS011;59939;52.516;13.420;2022-12-08T05:23:36;28.83;;;13.13;;
72065;SDS011;59939;52.516;13.420;2022-12-08T05:26:40;43.40;;;20.00;;
72065;SDS011;59939;52.516;13.420;2022-12-08T05:29:44;51.90;;;21.23;;
72065;SDS011;59939;52.516;13.420;2022-12-08T05:32:48;33.17;;;15.03;;
72065;SDS011;59939;52.516;13.420;2022-12-08T05:35:52;30.87;;;13.47;;
72065;SDS011;59939;52.516;13.420;2022-12-08T05:39:00;30.10;;;12.57;;
72065;SDS011;59939;52.516;13.420;2022-12-08T05:42:04;39.00;;;17.70;;
72065;SDS011;59939;52.516;13.420;2022-12-08T05:45:10;40.87;;;18.00;;
72065;SDS011;59939;52.516;13.420;2022-12-08T05:48:22;49.47;;;19.67;;
72065;SDS011;59939;52.516;13.420;2022-12-08T05:51:26;21.60;;;11.60;;
72065;SDS011;59939;52.516;13.420;2022-12-08T05:54:32;34.07;;;16.10;;
72065;SDS011;59939;52.516;13.420;2022-12-08T05:57:36;35.87;;;18.17;;
72065;SDS011;59939;52.516;13.420;2022-12-08T06:00:42;35.60;;;17.37;;
72065;SDS011;59939;52.516;13.420;2022-12-08T06:03:46;32.90;;;16.83;;
72065;SDS011;59939;52.516;13.420;2022-12-08T06:06:50;46.33;;;21.13;;
72065;SDS011;59939;52.516;13.420;2022-12-08T06:09:54;34.97;;;17.17;;
72065;SDS011;59939;52.516;13.420;2022-12-08T06:12:57;39.20;;;18.67;;
72065;SDS011;59939;52.516;13.420;2022-12-08T06:16:07;47.07;;;20.40;;
72065;SDS011;59939;52.516;13.420;2022-12-08T06:19:12;43.77;;;20.10;;
72065;SDS011;59939;52.516;13.420;2022-12-08T06:22:18;36.33;;;14.03;;
72065;SDS011;59939;52.516;13.420;2022-12-08T06:25:22;35.53;;;15.33;;
72065;SDS011;59939;52.516;13.420;2022-12-08T06:28:29;35.97;;;16.93;;
72065;SDS011;59939;52.516;13.420;2022-12-08T06:31:36;38.43;;;18.63;;
72065;SDS011;59939;52.516;13.420;2022-12-08T06:34:40;39.07;;;19.30;;
72065;SDS011;59939;52.516;13.420;2022-12-08T06:37:43;40.40;;;18.23;;
72065;SDS011;59939;52.516;13.420;2022-12-08T06:40:52;31.67;;;14.87;;
72065;SDS011;59939;52.516;13.420;2022-12-08T06:43:56;41.10;;;18.47;;
72065;SDS011;59939;52.516;13.420;2022-12-08T06:47:00;43.03;;;18.80;;
72065;SDS011;59939;52.516;13.420;2022-12-08T06:50:04;30.03;;;12.10;;
72065;SDS011;59939;52.516;13.420;2022-12-08T06:53:10;39.17;;;17.93;;
72065;SDS011;59939;52.516;13.420;2022-12-08T06:56:14;42.80;;;16.13;;
72065;SDS011;59939;52.516;13.420;2022-12-08T06:59:26;26.30;;;13.10;;
72065;SDS011;59939;52.516;13.420;2022-12-08T07:02:29;36.03;;;17.57;;
72065;SDS011;59939;52.516;13.420;2022-12-08T07:05:36;30.20;;;12.90;;
72065;SDS011;59939;52.516;13.420;2022-12-08T07:08:41;32.97;;;16.47;;
72065;SDS011;59939;52.516;13.420;2022-12-08T07:11:45;32.07;;;15.33;;
72065;SDS011;59939;52.516;13.420;2022-12-08T07:14:53;31.50;;;13.23;;
72065;SDS011;59939;52.516;13.420;2022-12-08T07:17:57;32.13;;;15.30;;
72065;SDS011;59939;52.516;13.420;2022-12-08T07:21:04;36.17;;;14.27;;
72065;SDS011;59939;52.516;13.420;2022-12-08T07:24:08;37.23;;;17.17;;
72065;SDS011;59939;52.516;13.420;2022-12-08T07:27:12;34.60;;;18.63;;
72065;SDS011;59939;52.516;13.420;2022-12-08T07:30:16;25.70;;;14.10;;
72065;SDS011;59939;52.516;13.420;2022-12-08T07:33:20;33.57;;;14.10;;
72065;SDS011;59939;52.516;13.420;2022-12-08T07:36:24;27.37;;;13.93;;
72065;SDS011;59939;52.516;13.420;2022-12-08T07:39:28;33.77;;;18.07;;
72065;SDS011;59939;52.516;13.420;2022-12-08T07:46:00;25.43;;;13.27;;
72065;SDS011;59939;52.516;13.420;2022-12-08T07:49:05;34.87;;;16.77;;
72065;SDS011;59939;52.516;13.420;2022-12-08T07:52:11;27.83;;;14.17;;
72065;SDS011;59939;52.516;13.420;2022-12-08T07:55:15;22.83;;;12.73;;
72065;SDS011;59939;52.516;13.420;2022-12-08T07:58:18;21.50;;;11.17;;
72065;SDS011;59939;52.516;13.420;2022-12-08T08:01:26;29.70;;;15.27;;
72065;SDS011;59939;52.516;13.420;2022-12-08T08:04:30;30.27;;;13.80;;
72065;SDS011;59939;52.516;13.420;2022-12-08T08:07:35;34.90;;;16.90;;
72065;SDS011;59939;52.516;13.420;2022-12-08T08:10:40;29.17;;;13.77;;
72065;SDS011;59939;52.516;13.420;2022-12-08T08:13:44;34.23;;;15.63;;
72065;SDS011;59939;52.516;13.420;2022-12-08T08:16:48;27.57;;;14.27;;
72065;SDS011;59939;52.516;13.420;2022-12-08T08:19:52;34.63;;;16.33;;
72065;SDS011;59939;52.516;13.420;2022-12-08T08:22:59;33.63;;;14.50;;
72065;SDS011;59939;52.516;13.420;2022-12-08T08:26:03;31.30;;;13.93;;
72065;SDS011;59939;52.516;13.420;2022-12-08T08:29:07;34.67;;;16.50;;
72065;SDS011;59939;52.516;13.420;2022-12-08T08:32:14;35.73;;;16.50;;
72065;SDS011;59939;52.516;13.420;2022-12-08T08:35:20;28.77;;;14.43;;
72065;SDS011;59939;52.516;13.420;2022-12-08T08:38:24;31.27;;;14.73;;
72065;SDS011;59939;52.516;13.420;2022-12-08T08:41:28;32.43;;;16.17;;
72065;SDS011;59939;52.516;13.420;2022-12-08T08:44:31;29.53;;;14.53;;
72065;SDS011;59939;52.516;13.420;2022-12-08T08:47:38;28.30;;;14.63;;
72065;SDS011;59939;52.516;13.420;2022-12-08T08:50:41;30.33;;;14.80;;
72065;SDS011;59939;52.516;13.420;2022-12-08T08:53:47;35.53;;;17.97;;
72065;SDS011;59939;52.516;13.420;2022-12-08T08:56:51;31.97;;;17.90;;
72065;SDS011;59939;52.516;13.420;2022-12-08T08:59:55;34.73;;;18.67;;
72065;SDS011;59939;52.516;13.420;2022-12-08T09:02:59;36.50;;;15.67;;
72065;SDS011;59939;52.516;13.420;2022-12-08T09:06:03;29.77;;;14.27;;
72065;SDS011;59939;52.516;13.420;2022-12-08T09:09:20;30.00;;;14.87;;
72065;SDS011;59939;52.516;13.420;2022-12-08T09:12:25;33.00;;;17.00;;
72065;SDS011;59939;52.516;13.420;2022-12-08T09:15:28;28.60;;;15.10;;
72065;SDS011;59939;52.516;13.420;2022-12-08T09:18:32;32.57;;;15.77;;
72065;SDS011;59939;52.516;13.420;2022-12-08T09:21:43;32.33;;;15.67;;
72065;SDS011;59939;52.516;13.420;2022-12-08T09:24:47;30.43;;;15.37;;
72065;SDS011;59939;52.516;13.420;2022-12-08T09:27:50;33.03;;;17.33;;
72065;SDS011;59939;52.516;13.420;2022-12-08T09:30:54;29.73;;;16.77;;
72065;SDS011;59939;52.516;13.420;2022-12-08T09:33:58;28.43;;;11.90;;
72065;SDS011;59939;52.516;13.420;2022-12-08T09:37:01;26.67;;;14.43;;
72065;SDS011;59939;52.516;13.420;2022-12-08T09:40:05;23.83;;;13.00;;
72065;SDS011;59939;52.516;13.420;2022-12-08T09:46:33;31.03;;;16.97;;
72065;SDS011;59939;52.516;13.420;2022-12-08T09:49:38;31.20;;;15.70;;
72065;SDS011;59939;52.516;13.420;2022-12-08T09:52:46;26.63;;;13.00;;
72065;SDS011;59939;52.516;13.420;2022-12-08T09:55:51;28.80;;;15.13;;
72065;SDS011;59939;52.516;13.420;2022-12-08T09:59:15;31.23;;;12.73;;
72065;SDS011;59939;52.516;13.420;2022-12-08T10:02:22;26.37;;;11.30;;
72065;SDS011;59939;52.516;13.420;2022-12-08T10:05:26;30.23;;;13.60;;
72065;SDS011;59939;52.516;13.420;2022-12-08T10:08:38;24.37;;;14.33;;
72065;SDS011;59939;52.516;13.420;2022-12-08T10:11:52;31.57;;;17.27;;
72065;SDS011;59939;52.516;13.420;2022-12-08T10:15:21;21.50;;;13.70;;
72065;SDS011;59939;52.516;13.420;2022-12-08T10:18:29;23.07;;;15.20;;
72065;SDS011;59939;52.516;13.420;2022-12-08T10:21:39;27.67;;;15.33;;
72065;SDS011;59939;52.516;13.420;2022-12-08T10:24:45;28.10;;;16.33;;
72065;SDS011;59939;52.516;13.420;2022-12-08T10:27:53;27.67;;;19.37;;
72065;SDS011;59939;52.516;13.420;2022-12-08T10:30:57;26.87;;;18.27;;
72065;SDS011;59939;52.516;13.420;2022-12-08T10:34:09;24.73;;;18.93;;
72065;SDS011;59939;52.516;13.420;2022-12-08T10:37:16;31.53;;;24.17;;
72065;SDS011;59939;52.516;13.420;2022-12-08T10:40:21;25.07;;;21.20;;
72065;SDS011;59939;52.516;13.420;2022-12-08T10:43:25;33.63;;;25.97;;
72065;SDS011;59939;52.516;13.420;2022-12-08T10:46:30;22.83;;;20.40;;
72065;SDS011;59939;52.516;13.420;2022-12-08T10:49:36;27.43;;;24.20;;
72065;SDS011;59939;52.516;13.420;2022-12-08T10:52:43;30.87;;;25.60;;
72065;SDS011;59939;52.516;13.420;2022-12-08T10:55:49;32.30;;;28.00;;
72065;SDS011;59939;52.516;13.420;2022-12-08T11:02:17;30.60;;;27.60;;
72065;SDS011;59939;52.516;13.420;2022-12-08T11:05:21;34.27;;;30.90;;
72065;SDS011;59939;52.516;13.420;2022-12-08T11:08:26;34.67;;;30.87;;
72065;SDS011;59939;52.516;13.420;2022-12-08T11:11:43;31.83;;;28.87;;
72065;SDS011;59939;52.516;13.420;2022-12-08T11:14:49;26.00;;;23.33;;
72065;SDS011;59939;52.516;13.420;2022-12-08T11:18:00;25.63;;;23.03;;
72065;SDS011;59939;52.516;13.420;2022-12-08T11:21:07;38.40;;;32.17;;
72065;SDS011;59939;52.516;13.420;2022-12-08T11:24:26;42.00;;;38.43;;
72065;SDS011;59939;52.516;13.420;2022-12-08T11:27:30;34.83;;;32.27;;
72065;SDS011;59939;52.516;13.420;2022-12-08T11:30:39;29.17;;;26.60;;
72065;SDS011;59939;52.516;13.420;2022-12-08T11:33:45;30.37;;;27.80;;
72065;SDS011;59939;52.516;13.420;2022-12-08T11:36:49;31.20;;;28.20;;
72065;SDS011;59939;52.516;13.420;2022-12-08T11:39:56;28.03;;;24.03;;
72065;SDS011;59939;52.516;13.420;2022-12-08T11:46:23;30.03;;;26.53;;
72065;SDS011;59939;52.516;13.420;2022-12-08T11:49:38;27.07;;;24.13;;
72065;SDS011;59939;52.516;13.420;2022-12-08T11:52:44;25.57;;;22.60;;
72065;SDS011;59939;52.516;13.420;2022-12-08T11:55:49;24.83;;;22.23;;
72065;SDS011;59939;52.516;13.420;2022-12-08T11:58:55;28.17;;;25.37;;
72065;SDS011;59939;52.516;13.420;2022-12-08T12:02:01;29.83;;;26.50;;
72065;SDS011;59939;52.516;13.420;2022-12-08T12:05:07;32.17;;;28.10;;
72065;SDS011;59939;52.516;13.420;2022-12-08T12:08:23;27.77;;;24.87;;
72065;SDS011;59939;52.516;13.420;2022-12-08T12:11:34;28.23;;;25.33;;
72065;SDS011;59939;52.516;13.420;2022-12-08T12:21:51;28.93;;;26.20;;
72065;SDS011;59939;52.516;13.420;2022-12-08T12:24:56;26.73;;;24.07;;
72065;SDS011;59939;52.516;13.420;2022-12-08T12:28:01;26.60;;;24.17;;
72065;SDS011;59939;52.516;13.420;2022-12-08T12:31:09;29.37;;;26.37;;
72065;SDS011;59939;52.516;13.420;2022-12-08T12:34:18;29.47;;;24.53;;
72065;SDS011;59939;52.516;13.420;2022-12-08T12:37:34;23.50;;;21.00;;
72065;SDS011;59939;52.516;13.420;2022-12-08T12:40:39;23.70;;;20.97;;
72065;SDS011;59939;52.516;13.420;2022-12-08T12:44:05;22.53;;;19.87;;
72065;SDS011;59939;52.516;13.420;2022-12-08T12:47:09;25.73;;;20.60;;
72065;SDS011;59939;52.516;13.420;2022-12-08T12:56:48;27.37;;;22.73;;
72065;SDS011;59939;52.516;13.420;2022-12-08T13:02:57;27.90;;;23.10;;
72065;SDS011;59939;52.516;13.420;2022-12-08T13:06:02;25.77;;;20.57;;
72065;SDS011;59939;52.516;13.420;2022-12-08T13:09:14;31.60;;;23.50;;
72065;SDS011;59939;52.516;13.420;2022-12-08T13:12:22;22.30;;;19.80;;
72065;SDS011;59939;52.516;13.420;2022-12-08T13:15:28;24.83;;;21.43;;
72065;SDS011;59939;52.516;13.420;2022-12-08T13:18:36;21.77;;;18.87;;
72065;SDS011;59939;52.516;13.420;2022-12-08T13:21:42;25.27;;;21.37;;
72065;SDS011;59939;52.516;13.420;2022-12-08T13:24:46;23.90;;;20.30;;
72065;SDS011;59939;52.516;13.420;2022-12-08T13:27:53;24.10;;;20.33;;
72065;SDS011;59939;52.516;13.420;2022-12-08T13:30:57;33.00;;;25.20;;
72065;SDS011;59939;52.516;13.420;2022-12-08T13:34:12;25.63;;;21.87;;
72065;SDS011;59939;52.516;13.420;2022-12-08T13:37:24;22.03;;;17.27;;
72065;SDS011;59939;52.516;13.420;2022-12-08T13:40:40;22.30;;;17.97;;
72065;SDS011;59939;52.516;13.420;2022-12-08T13:43:46;27.13;;;21.30;;
72065;SDS011;59939;52.516;13.420;2022-12-08T13:47:05;21.33;;;16.27;;
72065;SDS011;59939;52.516;13.420;2022-12-08T13:50:42;29.40;;;19.67;;
72065;SDS011;59939;52.516;13.420;2022-12-08T13:54:24;23.43;;;17.40;;
72065;SDS011;59939;52.516;13.420;2022-12-08T13:57:49;29.33;;;18.47;;
72065;SDS011;59939;52.516;13.420;2022-12-08T14:01:00;27.10;;;17.83;;
72065;SDS011;59939;52.516;13.420;2022-12-08T14:04:11;26.13;;;17.80;;
72065;SDS011;59939;52.516;13.420;2022-12-08T14:07:37;25.70;;;16.53;;
72065;SDS011;59939;52.516;13.420;2022-12-08T14:10:41;19.43;;;15.13;;
72065;SDS011;59939;52.516;13.420;2022-12-08T14:13:45;18.20;;;10.30;;
72065;SDS011;59939;52.516;13.420;2022-12-08T14:16:51;17.53;;;9.83;;
72065;SDS011;59939;52.516;13.420;2022-12-08T14:22:59;14.87;;;12.07;;
72065;SDS011;59939;52.516;13.420;2022-12-08T14:26:09;18.50;;;12.90;;
72065;SDS011;59939;52.516;13.420;2022-12-08T14:29:18;18.27;;;13.37;;
72065;SDS011;59939;52.516;13.420;2022-12-08T14:32:30;18.10;;;12.00;;
72065;SDS011;59939;52.516;13.420;2022-12-08T14:35:35;16.83;;;11.93;;
72065;SDS011;59939;52.516;13.420;2022-12-08T14:38:39;15.67;;;9.53;;
72065;SDS011;59939;52.516;13.420;2022-12-08T14:41:57;19.37;;;10.20;;
72065;SDS011;59939;52.516;13.420;2022-12-08T14:45:05;14.43;;;9.30;;
72065;SDS011;59939;52.516;13.420;2022-12-08T14:51:29;13.30;;;9.10;;
72065;SDS011;59939;52.516;13.420;2022-12-08T14:54:33;15.47;;;9.37;;
72065;SDS011;59939;52.516;13.420;2022-12-08T14:57:37;14.23;;;11.20;;
72065;SDS011;59939;52.516;13.420;2022-12-08T15:00:48;16.03;;;9.90;;
72065;SDS011;59939;52.516;13.420;2022-12-08T15:07:12;19.23;;;11.70;;
72065;SDS011;59939;52.516;13.420;2022-12-08T15:10:19;14.93;;;12.03;;
72065;SDS011;59939;52.516;13.420;2022-12-08T15:13:24;20.70;;;13.70;;
72065;SDS011;59939;52.516;13.420;2022-12-08T15:19:41;17.97;;;11.37;;
72065;SDS011;59939;52.516;13.420;2022-12-08T15:22:45;21.23;;;13.40;;
72065;SDS011;59939;52.516;13.420;2022-12-08T15:25:48;19.73;;;12.20;;
72065;SDS011;59939;52.516;13.420;2022-12-08T15:28:53;14.70;;;9.07;;
72065;SDS011;59939;52.516;13.420;2022-12-08T15:31:58;18.60;;;12.03;;
72065;SDS011;59939;52.516;13.420;2022-12-08T15:35:02;19.17;;;11.43;;
72065;SDS011;59939;52.516;13.420;2022-12-08T15:38:06;21.00;;;13.17;;
72065;SDS011;59939;52.516;13.420;2022-12-08T15:41:13;18.67;;;10.47;;
72065;SDS011;59939;52.516;13.420;2022-12-08T15:44:17;18.23;;;10.67;;
72065;SDS011;59939;52.516;13.420;2022-12-08T15:47:22;20.50;;;11.13;;
72065;SDS011;59939;52.516;13.420;2022-12-08T15:50:26;13.30;;;9.03;;
72065;SDS011;59939;52.516;13.420;2022-12-08T15:53:30;13.97;;;9.27;;
72065;SDS011;59939;52.516;13.420;2022-12-08T15:56:33;15.57;;;9.80;;
72065;SDS011;59939;52.516;13.420;2022-12-08T15:59:43;15.73;;;10.00;;
72065;SDS011;59939;52.516;13.420;2022-12-08T16:02:47;17.10;;;8.77;;
72065;SDS011;59939;52.516;13.420;2022-12-08T16:06:14;15.00;;;8.47;;
72065;SDS011;59939;52.516;13.420;2022-12-08T16:09:39;19.87;;;12.33;;
72065;SDS011;59939;52.516;13.420;2022-12-08T16:12:44;20.00;;;13.10;;
72065;SDS011;59939;52.516;13.420;2022-12-08T16:16:35;20.67;;;12.10;;
72065;SDS011;59939;52.516;13.420;2022-12-08T16:19:38;19.50;;;12.33;;
72065;SDS011;59939;52.516;13.420;2022-12-08T16:22:44;16.53;;;10.10;;
72065;SDS011;59939;52.516;13.420;2022-12-08T16:25:59;20.17;;;10.50;;
72065;SDS011;59939;52.516;13.420;2022-12-08T16:29:26;12.47;;;7.97;;
72065;SDS011;59939;52.516;13.420;2022-12-08T16:32:31;19.57;;;11.37;;
72065;SDS011;59939;52.516;13.420;2022-12-08T16:35:39;19.93;;;11.90;;
72065;SDS011;59939;52.516;13.420;2022-12-08T16:38:45;11.87;;;6.73;;
72065;SDS011;59939;52.516;13.420;2022-12-08T16:41:49;12.63;;;7.80;;
72065;SDS011;59939;52.516;13.420;2022-12-08T16:45:44;18.90;;;10.90;;
72065;SDS011;59939;52.516;13.420;2022-12-08T16:48:48;14.60;;;8.77;;
72065;SDS011;59939;52.516;13.420;2022-12-08T16:51:52;15.97;;;9.53;;
72065;SDS011;59939;52.516;13.420;2022-12-08T16:54:56;15.27;;;10.33;;
72065;SDS011;59939;52.516;13.420;2022-12-08T16:58:00;15.07;;;8.97;;
72065;SDS011;59939;52.516;13.420;2022-12-08T17:01:08;15.43;;;9.73;;
72065;SDS011;59939;52.516;13.420;2022-12-08T17:04:12;19.77;;;12.80;;
72065;SDS011;59939;52.516;13.420;2022-12-08T17:07:36;14.67;;;9.27;;
72065;SDS011;59939;52.516;13.420;2022-12-08T17:10:40;19.03;;;11.30;;
72065;SDS011;59939;52.516;13.420;2022-12-08T17:13:44;12.30;;;8.97;;
72065;SDS011;59939;52.516;13.420;2022-12-08T17:16:47;19.53;;;12.13;;
72065;SDS011;59939;52.516;13.420;2022-12-08T17:19:53;16.17;;;12.57;;
72065;SDS011;59939;52.516;13.420;2022-12-08T17:22:57;18.30;;;13.37;;
72065;SDS011;59939;52.516;13.420;2022-12-08T17:26:01;19.07;;;14.93;;
72065;SDS011;59939;52.516;13.420;2022-12-08T17:29:05;19.27;;;13.90;;
72065;SDS011;59939;52.516;13.420;2022-12-08T17:32:08;19.60;;;15.80;;
72065;SDS011;59939;52.516;13.420;2022-12-08T17:35:12;20.10;;;14.17;;
72065;SDS011;59939;52.516;13.420;2022-12-08T17:38:17;19.83;;;14.30;;
72065;SDS011;59939;52.516;13.420;2022-12-08T17:41:23;16.13;;;10.83;;
72065;SDS011;59939;52.516;13.420;2022-12-08T17:44:27;16.80;;;10.83;;
72065;SDS011;59939;52.516;13.420;2022-12-08T17:47:30;17.17;;;9.40;;
72065;SDS011;59939;52.516;13.420;2022-12-08T17:50:38;17.53;;;10.67;;
72065;SDS011;59939;52.516;13.420;2022-12-08T17:53:42;21.37;;;13.30;;
72065;SDS011;59939;52.516;13.420;2022-12-08T17:56:45;17.10;;;9.90;;
72065;SDS011;59939;52.516;13.420;2022-12-08T17:59:49;19.10;;;10.30;;
72065;SDS011;59939;52.516;13.420;2022-12-08T18:02:53;22.33;;;12.13;;
72065;SDS011;59939;52.516;13.420;2022-12-08T18:06:02;22.47;;;11.73;;
72065;SDS011;59939;52.516;13.420;2022-12-08T18:09:08;17.27;;;9.17;;
72065;SDS011;59939;52.516;13.420;2022-12-08T18:12:12;14.23;;;8.40;;
72065;SDS011;59939;52.516;13.420;2022-12-08T18:15:16;22.60;;;13.73;;
72065;SDS011;59939;52.516;13.420;2022-12-08T18:18:20;22.47;;;12.80;;
72065;SDS011;59939;52.516;13.420;2022-12-08T18:21:27;24.67;;;13.27;;
72065;SDS011;59939;52.516;13.420;2022-12-08T18:24:31;16.90;;;9.47;;
72065;SDS011;59939;52.516;13.420;2022-12-08T18:27:36;20.67;;;10.33;;
72065;SDS011;59939;52.516;13.420;2022-12-08T18:30:45;16.07;;;7.67;;
72065;SDS011;59939;52.516;13.420;2022-12-08T18:33:49;14.13;;;5.80;;
72065;SDS011;59939;52.516;13.420;2022-12-08T18:36:53;21.03;;;7.47;;
72065;SDS011;59939;52.516;13.420;2022-12-08T18:39:59;22.83;;;12.10;;
72065;SDS011;59939;52.516;13.420;2022-12-08T18:43:05;24.30;;;11.33;;
72065;SDS011;59939;52.516;13.420;2022-12-08T18:46:16;20.57;;;10.60;;
72065;SDS011;59939;52.516;13.420;2022-12-08T18:49:21;23.60;;;12.03;;
72065;SDS011;59939;52.516;13.420;2022-12-08T18:52:26;23.97;;;11.67;;
72065;SDS011;59939;52.516;13.420;2022-12-08T18:55:36;22.50;;;9.87;;
72065;SDS011;59939;52.516;13.420;2022-12-08T18:58:42;27.33;;;11.60;;
72065;SDS011;59939;52.516;13.420;2022-12-08T19:01:46;21.27;;;10.03;;
72065;SDS011;59939;52.516;13.420;2022-12-08T19:04:53;22.10;;;11.17;;
72065;SDS011;59939;52.516;13.420;2022-12-08T19:07:57;25.33;;;11.27;;
72065;SDS011;59939;52.516;13.420;2022-12-08T19:11:01;26.13;;;12.13;;
72065;SDS011;59939;52.516;13.420;2022-12-08T19:14:05;21.43;;;9.37;;
72065;SDS011;59939;52.516;13.420;2022-12-08T19:17:09;22.10;;;10.87;;